createdAt,value
2017-10-29T00:02:16.237Z,13.30
2017-10-29T00:04:45.169Z,13.30
2017-10-29T00:07:14.231Z,13.30
2017-10-29T00:09:43.167Z,13.20
2017-10-29T00:12:12.856Z,13.00
2017-10-29T00:14:42.582Z,12.90
2017-10-29T00:17:11.538Z,12.80
2017-10-29T00:19:40.482Z,12.70
2017-10-29T00:22:10.231Z,12.60
2017-10-29T00:24:39.570Z,12.50
2017-10-29T00:27:08.548Z,12.40
2017-10-29T00:29:37.521Z,12.40
2017-10-29T00:32:06.489Z,12.40
2017-10-29T00:34:35.438Z,12.40
2017-10-29T00:37:04.559Z,12.40
2017-10-29T00:39:33.503Z,12.40
2017-10-29T00:42:02.474Z,12.40
2017-10-29T00:44:31.847Z,12.50
2017-10-29T00:47:01.565Z,12.50
2017-10-29T00:49:30.520Z,12.70
2017-10-29T00:51:59.536Z,12.80
2017-10-29T00:54:28.482Z,12.90
2017-10-29T00:56:57.443Z,12.80
2017-10-29T00:59:26.386Z,12.80
2017-10-29T01:01:55.338Z,12.60
2017-10-29T01:04:25.441Z,11.90
2017-10-29T01:06:54.403Z,11.70
2017-10-29T01:09:23.721Z,11.50
2017-10-29T01:11:52.682Z,11.40
2017-10-29T01:14:22.420Z,11.40
2017-10-29T01:16:51.362Z,11.30
2017-10-29T01:19:20.303Z,11.20
2017-10-29T01:21:49.687Z,11.30
2017-10-29T01:24:18.617Z,11.30
2017-10-29T01:26:48.745Z,11.30
2017-10-29T01:29:17.722Z,11.30
2017-10-29T01:31:46.692Z,11.30
2017-10-29T01:34:16.387Z,11.40
2017-10-29T01:36:46.133Z,11.80
2017-10-29T01:39:15.117Z,11.40
2017-10-29T01:41:44.448Z,11.40
2017-10-29T01:44:13.417Z,11.40
2017-10-29T01:46:42.392Z,11.50
2017-10-29T01:49:11.735Z,11.60
2017-10-29T01:51:41.100Z,11.50
2017-10-29T01:54:11.449Z,11.50
2017-10-29T01:56:40.769Z,11.70
2017-10-29T01:59:09.738Z,11.60
2017-10-29T02:01:39.430Z,11.70
2017-10-29T02:04:08.387Z,11.70
2017-10-29T02:06:37.324Z,11.80
2017-10-29T02:09:06.261Z,11.90
2017-10-29T02:11:35.217Z,11.90
2017-10-29T02:14:04.571Z,11.80
2017-10-29T02:16:33.560Z,11.60
2017-10-29T02:19:03.651Z,11.30
2017-10-29T02:21:32.989Z,10.80
2017-10-29T02:24:01.959Z,10.60
2017-10-29T02:26:30.888Z,10.40
2017-10-29T02:28:59.855Z,10.30
2017-10-29T02:31:29.545Z,10.10
2017-10-29T02:33:59.265Z,10.00
2017-10-29T02:36:28.974Z,9.90
2017-10-29T02:38:58.340Z,10.00
2017-10-29T02:41:27.274Z,9.90
2017-10-29T02:43:57.372Z,9.90
2017-10-29T02:46:26.296Z,10.00
2017-10-29T02:48:55.250Z,10.00
2017-10-29T02:51:24.188Z,10.20
2017-10-29T02:53:53.131Z,10.40
2017-10-29T02:56:22.106Z,10.50
2017-10-29T02:58:51.432Z,10.50
2017-10-29T03:01:21.152Z,10.70
2017-10-29T03:03:50.513Z,10.80
2017-10-29T03:06:19.479Z,10.70
2017-10-29T03:08:48.441Z,10.70
2017-10-29T03:11:17.462Z,10.70
2017-10-29T03:13:47.560Z,10.70
2017-10-29T03:16:16.501Z,10.70
2017-10-29T03:18:45.464Z,10.70
2017-10-29T03:21:15.535Z,10.70
2017-10-29T03:23:45.342Z,10.80
2017-10-29T03:26:15.081Z,10.70
2017-10-29T03:28:44.037Z,10.30
2017-10-29T03:31:13.755Z,10.10
2017-10-29T03:33:43.470Z,10.10
2017-10-29T03:36:13.190Z,10.10
2017-10-29T03:38:42.271Z,10.20
2017-10-29T03:41:11.604Z,10.10
2017-10-29T03:43:41.310Z,10.30
2017-10-29T03:46:10.288Z,10.30
2017-10-29T03:48:39.965Z,10.30
2017-10-29T03:51:09.691Z,10.30
2017-10-29T03:53:39.396Z,10.30
2017-10-29T03:56:09.080Z,10.30
2017-10-29T03:58:38.447Z,10.40
2017-10-29T04:01:07.776Z,10.40
2017-10-29T04:03:36.685Z,10.40
2017-10-29T04:06:06.405Z,10.40
2017-10-29T04:08:36.097Z,10.30
2017-10-29T04:11:05.066Z,10.30
2017-10-29T04:13:34.455Z,10.30
2017-10-29T04:16:03.408Z,10.30
2017-10-29T04:18:32.342Z,10.30
2017-10-29T04:21:01.886Z,10.20
2017-10-29T04:23:31.565Z,10.10
2017-10-29T04:26:00.532Z,10.20
2017-10-29T04:28:29.470Z,10.30
2017-10-29T04:30:58.425Z,10.30
2017-10-29T04:33:28.137Z,10.40
2017-10-29T04:35:57.092Z,10.50
2017-10-29T04:38:26.023Z,10.50
2017-10-29T04:40:55.745Z,10.50
2017-10-29T04:43:24.686Z,10.50
2017-10-29T04:45:53.619Z,10.50
2017-10-29T04:48:22.589Z,10.50
2017-10-29T04:50:51.530Z,10.30
2017-10-29T04:53:21.236Z,10.30
2017-10-29T04:55:50.587Z,10.40
2017-10-29T04:58:19.576Z,10.40
2017-10-29T05:00:48.557Z,10.50
2017-10-29T05:03:17.502Z,10.50
2017-10-29T05:05:46.946Z,10.60
2017-10-29T05:08:15.901Z,10.60
2017-10-29T05:10:45.629Z,10.60
2017-10-29T05:13:15.435Z,10.40
2017-10-29T05:15:44.773Z,10.10
2017-10-29T05:18:13.737Z,10.10
2017-10-29T05:20:42.695Z,10.20
2017-10-29T05:23:11.706Z,10.30
2017-10-29T05:25:41.315Z,10.30
2017-10-29T05:28:10.238Z,10.50
2017-10-29T05:30:41.073Z,10.50
2017-10-29T05:33:10.009Z,10.30
2017-10-29T05:35:38.978Z,10.20
2017-10-29T05:38:08.014Z,10.10
2017-10-29T05:40:37.012Z,10.10
2017-10-29T05:43:06.720Z,10.00
2017-10-29T05:45:36.426Z,10.00
2017-10-29T05:48:05.384Z,9.90
2017-10-29T05:50:34.880Z,10.00
2017-10-29T05:53:04.612Z,10.10
2017-10-29T05:55:33.572Z,10.10
2017-10-29T05:58:02.517Z,10.10
2017-10-29T06:00:32.233Z,10.10
2017-10-29T06:03:01.947Z,10.10
2017-10-29T06:05:30.887Z,10.20
2017-10-29T06:07:59.848Z,10.20
2017-10-29T06:10:29.541Z,10.20
2017-10-29T06:12:58.569Z,10.20
2017-10-29T06:15:27.490Z,10.20
2017-10-29T06:17:57.207Z,10.20
2017-10-29T06:20:26.699Z,10.20
2017-10-29T06:22:55.659Z,10.20
2017-10-29T06:25:24.610Z,10.30
2017-10-29T06:27:53.589Z,10.30
2017-10-29T06:30:23.290Z,10.40
2017-10-29T06:32:52.648Z,10.00
2017-10-29T06:35:21.589Z,9.70
2017-10-29T06:37:50.932Z,9.40
2017-10-29T06:40:20.879Z,9.30
2017-10-29T06:42:50.819Z,9.20
2017-10-29T06:45:20.624Z,9.30
2017-10-29T06:47:49.528Z,9.40
2017-10-29T06:50:19.552Z,9.50
2017-10-29T06:52:48.877Z,9.60
2017-10-29T06:55:18.727Z,9.60
2017-10-29T06:57:48.038Z,9.70
2017-10-29T07:00:17.781Z,9.80
2017-10-29T07:05:23.618Z,9.90
2017-10-29T07:07:52.630Z,10.00
2017-10-29T07:10:21.949Z,10.00
2017-10-29T07:12:50.899Z,10.00
2017-10-29T07:15:20.726Z,10.10
2017-10-29T07:17:50.466Z,10.30
2017-10-29T07:20:19.642Z,10.10
2017-10-29T07:22:49.965Z,10.10
2017-10-29T07:25:19.389Z,10.20
2017-10-29T07:27:48.323Z,10.10
2017-10-29T07:30:17.282Z,10.30
2017-10-29T07:32:46.712Z,10.20
2017-10-29T07:35:15.738Z,10.10
2017-10-29T07:37:44.709Z,10.10
2017-10-29T07:40:15.701Z,10.10
2017-10-29T07:42:45.821Z,10.20
2017-10-29T07:45:14.794Z,10.30
2017-10-29T07:47:44.421Z,10.40
2017-10-29T07:50:13.537Z,10.50
2017-10-29T07:52:42.925Z,10.60
2017-10-29T07:55:12.740Z,10.70
2017-10-29T07:57:42.666Z,10.70
2017-10-29T08:00:11.668Z,10.70
2017-10-29T08:02:40.634Z,10.70
2017-10-29T08:05:09.643Z,10.90
2017-10-29T08:07:39.207Z,11.00
2017-10-29T08:10:08.649Z,10.60
2017-10-29T08:12:37.618Z,10.20
2017-10-29T08:15:08.549Z,10.00
2017-10-29T08:17:37.955Z,10.00
2017-10-29T08:20:08.573Z,10.30
2017-10-29T08:22:37.667Z,10.20
2017-10-29T08:25:06.628Z,10.20
2017-10-29T08:27:36.970Z,10.30
2017-10-29T08:30:13.245Z,10.30
2017-10-29T08:32:43.353Z,10.10
2017-10-29T08:35:12.749Z,10.00
2017-10-29T08:37:42.625Z,10.00
2017-10-29T08:40:11.766Z,10.20
2017-10-29T08:42:42.213Z,10.30
2017-10-29T08:45:12.704Z,10.40
2017-10-29T08:47:42.671Z,10.60
2017-10-29T08:50:14.976Z,10.60
2017-10-29T08:52:44.740Z,10.70
2017-10-29T08:55:14.517Z,10.90
2017-10-29T08:57:43.513Z,10.90
2017-10-29T09:00:12.713Z,11.00
2017-10-29T09:02:41.668Z,11.00
2017-10-29T09:05:12.780Z,11.10
2017-10-29T09:07:42.509Z,11.10
2017-10-29T09:10:12.913Z,11.20
2017-10-29T09:12:41.845Z,11.20
2017-10-29T09:15:10.857Z,11.20
2017-10-29T09:17:41.275Z,11.30
2017-10-29T09:20:11.213Z,11.20
2017-10-29T09:22:40.943Z,11.10
2017-10-29T09:25:10.690Z,11.20
2017-10-29T09:27:41.855Z,11.30
2017-10-29T09:30:10.890Z,11.50
2017-10-29T09:32:40.142Z,11.20
2017-10-29T09:35:10.838Z,10.80
2017-10-29T09:37:39.948Z,10.70
2017-10-29T09:40:10.388Z,10.80
2017-10-29T09:42:40.713Z,10.70
2017-10-29T09:45:10.750Z,10.50
2017-10-29T09:47:39.730Z,10.70
2017-10-29T09:50:08.670Z,10.90
2017-10-29T09:52:40.296Z,11.00
2017-10-29T09:55:09.244Z,11.10
2017-10-29T09:57:40.137Z,11.20
2017-10-29T10:00:09.498Z,11.40
2017-10-29T10:02:38.513Z,11.50
2017-10-29T10:05:07.479Z,11.50
2017-10-29T10:07:37.209Z,11.50
2017-10-29T10:10:06.650Z,11.60
2017-10-29T10:12:36.529Z,11.50
2017-10-29T10:15:05.961Z,11.60
2017-10-29T10:17:35.010Z,11.90
2017-10-29T10:20:04.414Z,12.20
2017-10-29T10:22:34.409Z,12.30
2017-10-29T10:25:04.236Z,12.20
2017-10-29T10:27:33.272Z,12.20
2017-10-29T10:30:02.234Z,12.00
2017-10-29T10:32:32.383Z,11.90
2017-10-29T10:35:02.195Z,11.80
2017-10-29T10:37:31.194Z,11.80
2017-10-29T10:40:02.600Z,11.80
2017-10-29T10:42:32.215Z,11.90
2017-10-29T10:45:02.794Z,12.00
2017-10-29T10:47:32.667Z,12.10
2017-10-29T10:50:02.457Z,12.10
2017-10-29T10:52:31.889Z,11.40
2017-10-29T10:55:01.668Z,10.90
2017-10-29T10:57:30.688Z,10.70
2017-10-29T11:00:00.233Z,10.60
2017-10-29T11:02:30.033Z,10.70
2017-10-29T11:04:59.795Z,10.70
2017-10-29T11:07:30.538Z,10.90
2017-10-29T11:09:59.629Z,11.10
2017-10-29T11:12:30.863Z,11.30
2017-10-29T11:15:00.222Z,11.60
2017-10-29T11:17:29.238Z,11.80
2017-10-29T11:19:58.401Z,11.90
2017-10-29T11:22:28.589Z,12.00
2017-10-29T11:24:58.770Z,12.20
2017-10-29T11:27:28.497Z,12.30
2017-10-29T11:29:57.494Z,12.60
2017-10-29T11:32:27.132Z,13.00
2017-10-29T11:34:56.579Z,13.10
2017-10-29T11:37:26.014Z,13.20
2017-10-29T11:39:54.948Z,13.10
2017-10-29T11:42:26.552Z,12.80
2017-10-29T11:44:55.801Z,12.50
2017-10-29T11:47:24.811Z,12.50
2017-10-29T11:49:55.945Z,12.00
2017-10-29T11:52:25.725Z,12.30
2017-10-29T11:54:54.655Z,12.20
2017-10-29T11:57:24.495Z,12.10
2017-10-29T11:59:53.456Z,12.00
2017-10-29T12:02:22.879Z,12.20
2017-10-29T12:04:54.338Z,12.30
2017-10-29T12:07:24.071Z,12.20
2017-10-29T12:09:53.161Z,12.90
2017-10-29T12:12:22.121Z,13.40
2017-10-29T12:14:52.951Z,13.50
2017-10-29T12:17:21.929Z,13.50
2017-10-29T12:19:52.215Z,13.90
2017-10-29T12:22:23.493Z,13.70
2017-10-29T12:24:53.753Z,14.10
2017-10-29T12:27:22.743Z,14.10
2017-10-29T12:29:51.737Z,14.30
2017-10-29T12:32:21.991Z,14.30
2017-10-29T12:34:52.566Z,14.20
2017-10-29T12:37:21.575Z,12.20
2017-10-29T12:39:50.752Z,10.30
2017-10-29T12:42:20.495Z,9.40
2017-10-29T12:44:50.082Z,8.90
2017-10-29T12:47:19.798Z,8.70
2017-10-29T12:49:48.737Z,8.70
2017-10-29T12:52:19.263Z,8.70
2017-10-29T12:54:48.636Z,8.80
2017-10-29T12:57:17.609Z,8.80
2017-10-29T12:59:48.300Z,9.20
2017-10-29T13:02:18.967Z,9.50
2017-10-29T13:04:48.532Z,10.10
2017-10-29T13:07:19.778Z,11.70
2017-10-29T13:09:48.725Z,12.90
2017-10-29T13:12:19.222Z,13.90
2017-10-29T13:14:48.173Z,14.20
2017-10-29T13:17:17.638Z,14.50
2017-10-29T13:19:47.026Z,14.60
2017-10-29T13:22:16.029Z,15.70
2017-10-29T13:24:51.476Z,15.10
2017-10-29T13:27:20.457Z,14.70
2017-10-29T13:29:50.142Z,14.40
2017-10-29T13:32:19.935Z,13.50
2017-10-29T13:34:51.599Z,13.80
2017-10-29T13:37:20.588Z,13.80
2017-10-29T13:39:49.577Z,14.40
2017-10-29T13:42:19.172Z,14.80
2017-10-29T13:44:48.530Z,14.70
2017-10-29T13:47:19.050Z,14.80
2017-10-29T13:49:48.022Z,14.90
2017-10-29T13:52:20.285Z,15.00
2017-10-29T13:54:49.378Z,15.20
2017-10-29T13:57:18.355Z,15.20
2017-10-29T13:59:47.703Z,15.70
2017-10-29T14:02:17.295Z,16.20
2017-10-29T14:04:47.021Z,16.20
2017-10-29T14:07:17.371Z,15.80
2017-10-29T14:09:46.956Z,15.70
2017-10-29T14:12:16.087Z,15.40
2017-10-29T14:14:45.589Z,15.50
2017-10-29T14:17:16.137Z,15.50
2017-10-29T14:19:46.226Z,14.60
2017-10-29T14:22:15.467Z,14.40
2017-10-29T14:24:47.004Z,14.30
2017-10-29T14:27:17.124Z,14.90
2017-10-29T14:29:46.869Z,15.10
2017-10-29T14:32:16.518Z,14.60
2017-10-29T14:34:46.253Z,14.80
2017-10-29T14:37:15.947Z,14.70
2017-10-29T14:39:44.914Z,14.40
2017-10-29T14:42:13.854Z,13.90
2017-10-29T14:44:43.581Z,13.80
2017-10-29T14:47:12.596Z,13.80
2017-10-29T14:49:42.314Z,13.70
2017-10-29T14:52:12.060Z,13.50
2017-10-29T14:54:41.421Z,12.90
2017-10-29T14:57:10.422Z,12.70
2017-10-29T14:59:40.934Z,12.40
2017-10-29T15:02:09.970Z,12.20
2017-10-29T15:04:39.789Z,12.20
2017-10-29T15:07:08.762Z,12.10
2017-10-29T15:09:37.702Z,11.80
2017-10-29T15:12:06.688Z,11.80
2017-10-29T15:14:35.683Z,11.70
2017-10-29T15:17:04.746Z,11.70
2017-10-29T15:19:33.991Z,11.60
2017-10-29T15:22:03.385Z,11.50
2017-10-29T15:24:32.355Z,11.50
2017-10-29T15:27:01.294Z,11.40
2017-10-29T15:29:30.282Z,11.40
2017-10-29T15:31:59.825Z,11.30
2017-10-29T15:34:29.520Z,11.30
2017-10-29T15:36:58.445Z,11.30
2017-10-29T15:39:27.381Z,11.20
2017-10-29T15:41:56.360Z,11.10
2017-10-29T15:44:25.808Z,11.00
2017-10-29T15:46:54.808Z,11.00
2017-10-29T15:49:24.534Z,11.00
2017-10-29T15:51:53.483Z,10.80
2017-10-29T15:54:22.667Z,10.80
2017-10-29T15:56:53.137Z,10.80
2017-10-29T15:59:22.444Z,10.70
2017-10-29T16:01:51.411Z,10.70
2017-10-29T16:04:21.107Z,10.70
2017-10-29T16:06:50.159Z,10.70
2017-10-29T16:09:20.230Z,10.70
2017-10-29T16:11:49.200Z,10.70
2017-10-29T16:14:18.929Z,10.60
2017-10-29T16:16:48.294Z,10.70
2017-10-29T16:19:17.707Z,10.60
2017-10-29T16:21:46.637Z,10.70
2017-10-29T16:24:15.616Z,10.70
2017-10-29T16:26:45.358Z,10.50
2017-10-29T16:29:14.287Z,10.50
2017-10-29T16:31:43.260Z,10.40
2017-10-29T16:34:12.204Z,10.40
2017-10-29T16:36:41.554Z,10.30
2017-10-29T16:39:10.512Z,10.30
2017-10-29T16:41:39.451Z,10.30
2017-10-29T16:44:08.406Z,10.40
2017-10-29T16:46:37.335Z,10.30
2017-10-29T16:49:06.318Z,10.40
2017-10-29T16:51:35.254Z,10.50
2017-10-29T16:54:04.654Z,10.40
2017-10-29T16:56:34.458Z,10.40
2017-10-29T16:59:03.404Z,10.40
2017-10-29T17:01:32.725Z,10.40
2017-10-29T17:04:01.712Z,10.30
2017-10-29T17:06:30.693Z,10.40
2017-10-29T17:08:59.636Z,10.40
2017-10-29T17:11:28.601Z,10.40
2017-10-29T17:13:57.597Z,10.40
2017-10-29T17:16:26.985Z,10.30
2017-10-29T17:18:57.335Z,10.40
2017-10-29T17:21:27.026Z,10.40
2017-10-29T17:23:56.786Z,10.30
2017-10-29T17:26:25.756Z,10.30
2017-10-29T17:28:55.505Z,10.30
2017-10-29T17:31:24.448Z,10.20
2017-10-29T17:33:54.359Z,10.10
2017-10-29T17:36:23.281Z,10.10
2017-10-29T17:38:53.393Z,10.20
2017-10-29T17:41:23.478Z,10.20
2017-10-29T17:43:52.450Z,10.20
2017-10-29T17:46:21.793Z,10.30
2017-10-29T17:48:50.768Z,10.20
2017-10-29T17:51:19.733Z,10.10
2017-10-29T17:53:48.767Z,10.10
2017-10-29T17:56:18.507Z,10.20
2017-10-29T17:58:47.503Z,10.10
2017-10-29T18:01:17.207Z,10.20
2017-10-29T18:03:46.566Z,10.10
2017-10-29T18:06:16.497Z,10.10
2017-10-29T18:08:45.511Z,9.90
2017-10-29T18:11:14.482Z,9.90
2017-10-29T18:13:43.443Z,9.80
2017-10-29T18:16:12.836Z,9.80
2017-10-29T18:21:37.350Z,9.70
2017-10-29T18:24:06.283Z,9.60
2017-10-29T18:26:36.100Z,9.60
2017-10-29T18:29:05.441Z,9.60
2017-10-29T18:31:35.224Z,9.50
2017-10-29T18:34:04.266Z,9.60
2017-10-29T18:36:33.257Z,9.80
2017-10-29T18:39:02.401Z,9.60
2017-10-29T18:41:31.773Z,9.30
2017-10-29T18:44:01.492Z,9.00
2017-10-29T18:46:32.452Z,9.00
2017-10-29T18:49:01.798Z,9.00
2017-10-29T18:51:30.767Z,8.80
2017-10-29T18:54:01.374Z,8.50
2017-10-29T18:56:30.390Z,8.40
2017-10-29T18:58:59.695Z,8.30
2017-10-29T19:01:30.142Z,8.30
2017-10-29T19:03:59.696Z,8.30
2017-10-29T19:06:28.659Z,8.30
2017-10-29T19:08:57.626Z,8.40
2017-10-29T19:11:27.398Z,8.50
2017-10-29T19:13:56.801Z,8.50
2017-10-29T19:16:27.220Z,8.70
2017-10-29T19:18:57.183Z,8.70
2017-10-29T19:21:26.581Z,8.80
2017-10-29T19:23:57.188Z,8.60
2017-10-29T19:26:26.534Z,8.50
2017-10-29T19:28:55.850Z,8.50
2017-10-29T19:31:24.828Z,8.40
2017-10-29T19:33:54.599Z,9.00
2017-10-29T19:36:24.677Z,8.50
2017-10-29T19:38:53.643Z,8.60
2017-10-29T19:41:26.429Z,8.60
2017-10-29T19:43:56.528Z,8.70
2017-10-29T19:46:25.515Z,8.80
2017-10-29T19:48:55.263Z,8.70
2017-10-29T19:51:24.661Z,8.70
2017-10-29T19:53:54.071Z,8.70
2017-10-29T19:56:23.052Z,8.60
2017-10-29T19:58:52.001Z,8.50
2017-10-29T20:01:21.768Z,8.50
2017-10-29T20:03:51.525Z,8.60
2017-10-29T20:06:20.537Z,8.60
2017-10-29T20:08:50.289Z,8.60
2017-10-29T20:11:19.266Z,8.70
2017-10-29T20:13:48.678Z,8.60
2017-10-29T20:16:17.656Z,8.50
2017-10-29T20:18:46.630Z,8.50
2017-10-29T20:21:16.385Z,8.40
2017-10-29T20:23:45.335Z,8.40
2017-10-29T20:26:14.381Z,8.30
2017-10-29T20:28:43.347Z,8.30
2017-10-29T20:31:13.662Z,8.30
2017-10-29T20:33:43.810Z,8.40
2017-10-29T20:36:15.623Z,8.40
2017-10-29T20:38:45.381Z,8.50
2017-10-29T20:41:14.348Z,8.40
2017-10-29T20:43:44.460Z,8.40
2017-10-29T20:46:13.478Z,8.50
2017-10-29T20:48:42.405Z,8.40
2017-10-29T20:51:12.290Z,8.40
2017-10-29T20:53:41.677Z,8.50
2017-10-29T20:56:10.673Z,8.60
2017-10-29T20:58:39.621Z,8.50
2017-10-29T21:01:09.391Z,8.50
2017-10-29T21:03:38.476Z,8.60
2017-10-29T21:06:07.840Z,8.60
2017-10-29T21:08:36.799Z,8.60
2017-10-29T21:11:06.549Z,8.50
2017-10-29T21:13:35.490Z,8.50
2017-10-29T21:16:05.237Z,8.60
2017-10-29T21:18:34.174Z,8.50
2017-10-29T21:21:03.549Z,8.40
2017-10-29T21:23:32.524Z,8.40
2017-10-29T21:26:01.621Z,8.50
2017-10-29T21:28:30.626Z,8.50
2017-10-29T21:30:59.591Z,8.40
2017-10-29T21:33:28.549Z,8.30
2017-10-29T21:35:58.313Z,8.30
2017-10-29T21:38:27.644Z,8.20
2017-10-29T21:40:56.572Z,8.30
2017-10-29T21:43:25.536Z,8.20
2017-10-29T21:45:55.254Z,8.00
2017-10-29T21:48:24.676Z,7.90
2017-10-29T21:50:53.679Z,7.90
2017-10-29T21:53:22.677Z,7.90
2017-10-29T21:55:51.630Z,8.00
2017-10-29T21:58:21.362Z,7.90
2017-10-29T22:00:50.723Z,7.90
2017-10-29T22:03:20.466Z,8.00
2017-10-29T22:05:49.795Z,7.90
2017-10-29T22:08:18.834Z,7.90
2017-10-29T22:10:48.578Z,8.00
2017-10-29T22:13:17.497Z,8.00
2017-10-29T22:15:46.847Z,8.00
2017-10-29T22:18:16.558Z,8.00
2017-10-29T22:20:45.531Z,8.00
2017-10-29T22:23:14.474Z,8.10
2017-10-29T22:25:43.441Z,8.20
2017-10-29T22:28:12.514Z,8.20
2017-10-29T22:30:41.462Z,8.20
2017-10-29T22:33:10.429Z,8.10
2017-10-29T22:35:39.851Z,7.80
2017-10-29T22:38:08.817Z,7.70
2017-10-29T22:40:37.733Z,7.60
2017-10-29T22:43:06.654Z,7.50
2017-10-29T22:45:35.999Z,7.50
2017-10-29T22:48:04.922Z,7.60
2017-10-29T22:50:33.863Z,7.60
2017-10-29T22:53:02.781Z,7.70
2017-10-29T22:55:31.733Z,7.70
2017-10-29T22:58:01.426Z,7.90
2017-10-29T23:00:30.393Z,8.00
2017-10-29T23:02:59.312Z,8.00
2017-10-29T23:05:40.917Z,8.10
2017-10-29T23:08:10.804Z,8.30
2017-10-29T23:10:41.257Z,8.10
2017-10-29T23:13:10.258Z,8.00
2017-10-29T23:15:39.572Z,8.00
2017-10-29T23:18:08.492Z,8.00
2017-10-29T23:20:37.864Z,7.90
2017-10-29T23:23:06.822Z,7.90
2017-10-29T23:25:36.517Z,7.90
2017-10-29T23:28:05.461Z,7.80
2017-10-29T23:30:35.193Z,7.70
2017-10-29T23:33:04.545Z,7.70
2017-10-29T23:35:33.465Z,7.70
2017-10-29T23:38:02.412Z,7.60
2017-10-29T23:40:32.121Z,7.70
2017-10-29T23:43:01.974Z,7.70
2017-10-29T23:45:30.893Z,7.70
2017-10-29T23:47:59.848Z,7.70
2017-10-29T23:50:28.774Z,7.90
2017-10-29T23:52:57.727Z,7.90
2017-10-29T23:55:27.784Z,7.90
2017-10-29T23:57:56.733Z,8.00
